sensor_id;sensor_type;location;lat;lon;timestamp;P1;durP1;ratioP1;P2;durP2;ratioP2
71048;SDS011;58704;53.358;-6.238;2023-02-11T00:02:01;8.73;;;2.95;;
71048;SDS011;58704;53.358;-6.238;2023-02-11T00:04:29;6.97;;;3.42;;
71048;SDS011;58704;53.358;-6.238;2023-02-11T00:06:55;8.60;;;3.20;;
71048;SDS011;58704;53.358;-6.238;2023-02-11T00:09:20;6.53;;;3.70;;
71048;SDS011;58704;53.358;-6.238;2023-02-11T00:11:46;12.63;;;5.20;;
71048;SDS011;58704;53.358;-6.238;2023-02-11T00:14:11;10.70;;;5.40;;
71048;SDS011;58704;53.358;-6.238;2023-02-11T00:16:37;11.23;;;4.78;;
71048;SDS011;58704;53.358;-6.238;2023-02-11T00:19:03;11.90;;;4.53;;
71048;SDS011;58704;53.358;-6.238;2023-02-11T00:21:30;14.27;;;6.17;;
71048;SDS011;58704;53.358;-6.238;2023-02-11T00:23:56;20.27;;;8.50;;
71048;SDS011;58704;53.358;-6.238;2023-02-11T00:26:25;17.55;;;7.38;;
71048;SDS011;58704;53.358;-6.238;2023-02-11T00:28:52;11.90;;;5.32;;
71048;SDS011;58704;53.358;-6.238;2023-02-11T00:31:19;10.20;;;4.93;;
71048;SDS011;58704;53.358;-6.238;2023-02-11T00:33:46;13.10;;;5.82;;
71048;SDS011;58704;53.358;-6.238;2023-02-11T00:36:18;9.87;;;4.30;;
71048;SDS011;58704;53.358;-6.238;2023-02-11T00:38:45;11.73;;;4.85;;
71048;SDS011;58704;53.358;-6.238;2023-02-11T00:41:14;9.30;;;3.95;;
71048;SDS011;58704;53.358;-6.238;2023-02-11T00:43:40;10.88;;;4.03;;
71048;SDS011;58704;53.358;-6.238;2023-02-11T00:46:06;21.00;;;5.60;;
71048;SDS011;58704;53.358;-6.238;2023-02-11T00:48:32;9.73;;;3.53;;
71048;SDS011;58704;53.358;-6.238;2023-02-11T00:50:58;6.60;;;3.30;;
71048;SDS011;58704;53.358;-6.238;2023-02-11T00:53:26;6.10;;;3.43;;
71048;SDS011;58704;53.358;-6.238;2023-02-11T00:55:52;8.18;;;3.67;;
71048;SDS011;58704;53.358;-6.238;2023-02-11T00:58:17;6.90;;;3.67;;
71048;SDS011;58704;53.358;-6.238;2023-02-11T01:00:43;8.97;;;3.53;;
71048;SDS011;58704;53.358;-6.238;2023-02-11T01:03:08;7.30;;;3.67;;
71048;SDS011;58704;53.358;-6.238;2023-02-11T01:05:36;6.80;;;3.13;;
71048;SDS011;58704;53.358;-6.238;2023-02-11T01:08:02;8.73;;;3.53;;
71048;SDS011;58704;53.358;-6.238;2023-02-11T01:10:27;6.65;;;3.70;;
71048;SDS011;58704;53.358;-6.238;2023-02-11T01:12:53;4.87;;;2.90;;
71048;SDS011;58704;53.358;-6.238;2023-02-11T01:15:21;6.90;;;3.23;;
71048;SDS011;58704;53.358;-6.238;2023-02-11T01:18:04;10.82;;;3.88;;
71048;SDS011;58704;53.358;-6.238;2023-02-11T01:20:30;7.97;;;3.00;;
71048;SDS011;58704;53.358;-6.238;2023-02-11T01:22:55;5.97;;;3.67;;
71048;SDS011;58704;53.358;-6.238;2023-02-11T01:25:22;7.75;;;3.35;;
71048;SDS011;58704;53.358;-6.238;2023-02-11T01:27:48;8.40;;;3.70;;
71048;SDS011;58704;53.358;-6.238;2023-02-11T01:30:14;8.40;;;3.30;;
71048;SDS011;58704;53.358;-6.238;2023-02-11T01:32:40;6.03;;;3.40;;
71048;SDS011;58704;53.358;-6.238;2023-02-11T01:35:05;5.53;;;3.47;;
71048;SDS011;58704;53.358;-6.238;2023-02-11T01:37:32;6.43;;;3.65;;
71048;SDS011;58704;53.358;-6.238;2023-02-11T01:39:58;26.27;;;4.75;;
71048;SDS011;58704;53.358;-6.238;2023-02-11T01:42:23;6.63;;;3.60;;
71048;SDS011;58704;53.358;-6.238;2023-02-11T01:44:49;5.47;;;3.40;;
71048;SDS011;58704;53.358;-6.238;2023-02-11T01:47:16;5.90;;;4.05;;
71048;SDS011;58704;53.358;-6.238;2023-02-11T01:49:49;7.78;;;3.58;;
71048;SDS011;58704;53.358;-6.238;2023-02-11T01:52:21;7.18;;;3.95;;
71048;SDS011;58704;53.358;-6.238;2023-02-11T01:54:51;9.23;;;3.40;;
71048;SDS011;58704;53.358;-6.238;2023-02-11T01:57:38;4.07;;;3.00;;
71048;SDS011;58704;53.358;-6.238;2023-02-11T02:00:17;6.78;;;3.40;;
71048;SDS011;58704;53.358;-6.238;2023-02-11T02:05:42;5.88;;;2.83;;
71048;SDS011;58704;53.358;-6.238;2023-02-11T02:10:44;3.97;;;2.80;;
71048;SDS011;58704;53.358;-6.238;2023-02-11T02:13:11;5.68;;;2.85;;
71048;SDS011;58704;53.358;-6.238;2023-02-11T02:15:39;4.53;;;2.60;;
71048;SDS011;58704;53.358;-6.238;2023-02-11T02:34:32;4.40;;;2.35;;
71048;SDS011;58704;53.358;-6.238;2023-02-11T02:37:12;7.38;;;3.10;;
71048;SDS011;58704;53.358;-6.238;2023-02-11T02:39:42;6.77;;;2.43;;
71048;SDS011;58704;53.358;-6.238;2023-02-11T02:42:10;7.32;;;2.72;;
71048;SDS011;58704;53.358;-6.238;2023-02-11T02:44:36;7.28;;;2.90;;
71048;SDS011;58704;53.358;-6.238;2023-02-11T02:47:02;6.50;;;2.77;;
71048;SDS011;58704;53.358;-6.238;2023-02-11T02:49:27;6.78;;;2.63;;
71048;SDS011;58704;53.358;-6.238;2023-02-11T02:51:59;4.00;;;2.40;;
71048;SDS011;58704;53.358;-6.238;2023-02-11T03:02:49;7.53;;;2.63;;
71048;SDS011;58704;53.358;-6.238;2023-02-11T03:05:43;6.27;;;2.40;;
71048;SDS011;58704;53.358;-6.238;2023-02-11T03:11:11;7.40;;;3.00;;
71048;SDS011;58704;53.358;-6.238;2023-02-11T03:13:39;3.47;;;2.25;;
71048;SDS011;58704;53.358;-6.238;2023-02-11T03:16:07;2.97;;;2.10;;
71048;SDS011;58704;53.358;-6.238;2023-02-11T03:18:36;8.10;;;2.28;;
71048;SDS011;58704;53.358;-6.238;2023-02-11T03:21:04;6.85;;;2.25;;
71048;SDS011;58704;53.358;-6.238;2023-02-11T03:29:16;4.80;;;2.70;;
71048;SDS011;58704;53.358;-6.238;2023-02-11T03:34:41;7.82;;;3.05;;
71048;SDS011;58704;53.358;-6.238;2023-02-11T03:37:12;4.95;;;2.60;;
71048;SDS011;58704;53.358;-6.238;2023-02-11T03:39:45;4.47;;;2.40;;
71048;SDS011;58704;53.358;-6.238;2023-02-11T03:42:15;4.73;;;2.50;;
71048;SDS011;58704;53.358;-6.238;2023-02-11T03:44:43;5.45;;;2.15;;
71048;SDS011;58704;53.358;-6.238;2023-02-11T03:47:13;2.75;;;2.05;;
71048;SDS011;58704;53.358;-6.238;2023-02-11T03:49:39;4.03;;;2.40;;
71048;SDS011;58704;53.358;-6.238;2023-02-11T03:52:06;3.53;;;2.10;;
71048;SDS011;58704;53.358;-6.238;2023-02-11T03:54:35;8.75;;;2.47;;
71048;SDS011;58704;53.358;-6.238;2023-02-11T03:57:02;5.13;;;2.35;;
71048;SDS011;58704;53.358;-6.238;2023-02-11T03:59:28;5.77;;;2.00;;
71048;SDS011;58704;53.358;-6.238;2023-02-11T04:01:53;4.93;;;2.33;;
71048;SDS011;58704;53.358;-6.238;2023-02-11T04:04:23;5.80;;;2.30;;
71048;SDS011;58704;53.358;-6.238;2023-02-11T04:06:48;7.80;;;2.20;;
71048;SDS011;58704;53.358;-6.238;2023-02-11T04:09:14;4.80;;;2.20;;
71048;SDS011;58704;53.358;-6.238;2023-02-11T04:11:40;4.50;;;2.42;;
71048;SDS011;58704;53.358;-6.238;2023-02-11T04:14:05;5.10;;;2.33;;
71048;SDS011;58704;53.358;-6.238;2023-02-11T04:16:31;3.03;;;2.13;;
71048;SDS011;58704;53.358;-6.238;2023-02-11T04:18:56;3.40;;;2.10;;
71048;SDS011;58704;53.358;-6.238;2023-02-11T04:21:22;5.27;;;2.43;;
71048;SDS011;58704;53.358;-6.238;2023-02-11T04:23:47;4.77;;;2.10;;
71048;SDS011;58704;53.358;-6.238;2023-02-11T04:26:13;2.70;;;2.30;;
71048;SDS011;58704;53.358;-6.238;2023-02-11T04:28:38;4.03;;;2.50;;
71048;SDS011;58704;53.358;-6.238;2023-02-11T04:31:04;6.37;;;2.93;;
71048;SDS011;58704;53.358;-6.238;2023-02-11T04:33:29;2.72;;;1.90;;
71048;SDS011;58704;53.358;-6.238;2023-02-11T04:35:55;6.73;;;1.93;;
71048;SDS011;58704;53.358;-6.238;2023-02-11T04:38:20;4.43;;;1.87;;
71048;SDS011;58704;53.358;-6.238;2023-02-11T04:40:48;3.80;;;2.15;;
71048;SDS011;58704;53.358;-6.238;2023-02-11T04:43:13;3.13;;;2.00;;
71048;SDS011;58704;53.358;-6.238;2023-02-11T04:45:39;4.27;;;2.10;;
71048;SDS011;58704;53.358;-6.238;2023-02-11T04:48:04;3.75;;;2.20;;
71048;SDS011;58704;53.358;-6.238;2023-02-11T04:50:30;3.47;;;1.97;;
71048;SDS011;58704;53.358;-6.238;2023-02-11T04:52:55;3.60;;;2.00;;
71048;SDS011;58704;53.358;-6.238;2023-02-11T04:55:21;4.75;;;1.77;;
71048;SDS011;58704;53.358;-6.238;2023-02-11T04:57:47;4.13;;;2.58;;
71048;SDS011;58704;53.358;-6.238;2023-02-11T05:00:12;3.90;;;1.97;;
71048;SDS011;58704;53.358;-6.238;2023-02-11T05:02:38;4.85;;;2.22;;
71048;SDS011;58704;53.358;-6.238;2023-02-11T05:05:04;7.03;;;2.20;;
71048;SDS011;58704;53.358;-6.238;2023-02-11T05:07:29;7.30;;;2.40;;
71048;SDS011;58704;53.358;-6.238;2023-02-11T05:09:55;3.70;;;2.20;;
71048;SDS011;58704;53.358;-6.238;2023-02-11T05:12:20;3.35;;;1.60;;
71048;SDS011;58704;53.358;-6.238;2023-02-11T05:14:46;2.37;;;1.80;;
71048;SDS011;58704;53.358;-6.238;2023-02-11T05:17:11;3.30;;;1.63;;
71048;SDS011;58704;53.358;-6.238;2023-02-11T05:19:37;6.30;;;2.10;;
71048;SDS011;58704;53.358;-6.238;2023-02-11T05:22:02;3.17;;;1.60;;
71048;SDS011;58704;53.358;-6.238;2023-02-11T05:24:28;2.27;;;1.57;;
71048;SDS011;58704;53.358;-6.238;2023-02-11T05:26:55;3.95;;;1.88;;
71048;SDS011;58704;53.358;-6.238;2023-02-11T05:29:20;3.20;;;1.70;;
71048;SDS011;58704;53.358;-6.238;2023-02-11T05:31:45;2.70;;;1.80;;
71048;SDS011;58704;53.358;-6.238;2023-02-11T05:34:11;2.55;;;2.00;;
71048;SDS011;58704;53.358;-6.238;2023-02-11T05:36:36;3.20;;;1.80;;
71048;SDS011;58704;53.358;-6.238;2023-02-11T05:39:02;3.00;;;1.77;;
71048;SDS011;58704;53.358;-6.238;2023-02-11T05:41:27;5.17;;;1.80;;
71048;SDS011;58704;53.358;-6.238;2023-02-11T05:43:53;3.15;;;1.40;;
71048;SDS011;58704;53.358;-6.238;2023-02-11T05:46:18;2.27;;;1.53;;
71048;SDS011;58704;53.358;-6.238;2023-02-11T05:48:43;7.83;;;1.70;;
71048;SDS011;58704;53.358;-6.238;2023-02-11T05:51:09;4.35;;;1.83;;
71048;SDS011;58704;53.358;-6.238;2023-02-11T05:53:35;2.37;;;1.40;;
71048;SDS011;58704;53.358;-6.238;2023-02-11T05:56:00;3.43;;;1.50;;
71048;SDS011;58704;53.358;-6.238;2023-02-11T05:58:26;4.15;;;1.70;;
71048;SDS011;58704;53.358;-6.238;2023-02-11T06:00:52;3.47;;;2.13;;
71048;SDS011;58704;53.358;-6.238;2023-02-11T06:03:17;3.42;;;1.40;;
71048;SDS011;58704;53.358;-6.238;2023-02-11T06:05:43;3.77;;;1.50;;
71048;SDS011;58704;53.358;-6.238;2023-02-11T06:08:09;3.42;;;1.67;;
71048;SDS011;58704;53.358;-6.238;2023-02-11T06:10:34;2.47;;;1.23;;
71048;SDS011;58704;53.358;-6.238;2023-02-11T06:13:00;3.70;;;1.30;;
71048;SDS011;58704;53.358;-6.238;2023-02-11T06:15:26;2.85;;;1.75;;
71048;SDS011;58704;53.358;-6.238;2023-02-11T06:17:52;3.60;;;1.65;;
71048;SDS011;58704;53.358;-6.238;2023-02-11T06:20:17;3.47;;;1.40;;
71048;SDS011;58704;53.358;-6.238;2023-02-11T06:22:43;6.15;;;1.70;;
71048;SDS011;58704;53.358;-6.238;2023-02-11T06:25:09;4.03;;;1.13;;
71048;SDS011;58704;53.358;-6.238;2023-02-11T06:27:35;2.92;;;1.33;;
71048;SDS011;58704;53.358;-6.238;2023-02-11T06:30:01;3.70;;;1.10;;
71048;SDS011;58704;53.358;-6.238;2023-02-11T06:32:27;3.90;;;1.38;;
71048;SDS011;58704;53.358;-6.238;2023-02-11T06:34:53;4.53;;;1.80;;
71048;SDS011;58704;53.358;-6.238;2023-02-11T06:37:18;3.10;;;1.97;;
71048;SDS011;58704;53.358;-6.238;2023-02-11T06:39:44;2.47;;;1.70;;
71048;SDS011;58704;53.358;-6.238;2023-02-11T06:42:09;3.90;;;1.48;;
71048;SDS011;58704;53.358;-6.238;2023-02-11T06:44:35;2.70;;;1.50;;
71048;SDS011;58704;53.358;-6.238;2023-02-11T06:47:00;4.43;;;2.00;;
71048;SDS011;58704;53.358;-6.238;2023-02-11T06:49:26;2.93;;;2.13;;
71048;SDS011;58704;53.358;-6.238;2023-02-11T06:51:51;2.37;;;1.80;;
71048;SDS011;58704;53.358;-6.238;2023-02-11T06:54:17;5.27;;;2.30;;
71048;SDS011;58704;53.358;-6.238;2023-02-11T06:56:42;7.30;;;1.48;;
71048;SDS011;58704;53.358;-6.238;2023-02-11T06:59:07;3.80;;;2.10;;
71048;SDS011;58704;53.358;-6.238;2023-02-11T07:01:33;5.17;;;1.80;;
71048;SDS011;58704;53.358;-6.238;2023-02-11T07:03:58;4.27;;;1.93;;
71048;SDS011;58704;53.358;-6.238;2023-02-11T07:06:24;2.58;;;2.08;;
71048;SDS011;58704;53.358;-6.238;2023-02-11T07:08:51;3.77;;;2.53;;
71048;SDS011;58704;53.358;-6.238;2023-02-11T07:11:23;7.95;;;2.75;;
71048;SDS011;58704;53.358;-6.238;2023-02-11T07:13:50;4.32;;;2.05;;
71048;SDS011;58704;53.358;-6.238;2023-02-11T07:16:16;5.53;;;2.53;;
71048;SDS011;58704;53.358;-6.238;2023-02-11T07:18:43;5.25;;;2.40;;
71048;SDS011;58704;53.358;-6.238;2023-02-11T07:21:10;4.23;;;2.20;;
71048;SDS011;58704;53.358;-6.238;2023-02-11T07:23:37;4.13;;;2.00;;
71048;SDS011;58704;53.358;-6.238;2023-02-11T07:26:04;3.72;;;2.10;;
71048;SDS011;58704;53.358;-6.238;2023-02-11T07:28:34;4.80;;;1.85;;
71048;SDS011;58704;53.358;-6.238;2023-02-11T07:33:35;12.70;;;2.50;;
71048;SDS011;58704;53.358;-6.238;2023-02-11T07:36:02;4.38;;;2.13;;
71048;SDS011;58704;53.358;-6.238;2023-02-11T07:38:28;5.53;;;2.13;;
71048;SDS011;58704;53.358;-6.238;2023-02-11T07:40:54;4.53;;;1.90;;
71048;SDS011;58704;53.358;-6.238;2023-02-11T07:43:19;5.20;;;1.43;;
71048;SDS011;58704;53.358;-6.238;2023-02-11T07:45:44;4.07;;;1.67;;
71048;SDS011;58704;53.358;-6.238;2023-02-11T07:48:12;2.47;;;1.50;;
71048;SDS011;58704;53.358;-6.238;2023-02-11T07:50:37;5.45;;;1.90;;
71048;SDS011;58704;53.358;-6.238;2023-02-11T07:53:03;3.57;;;2.00;;
71048;SDS011;58704;53.358;-6.238;2023-02-11T07:55:28;3.90;;;2.07;;
71048;SDS011;58704;53.358;-6.238;2023-02-11T07:57:54;4.63;;;1.83;;
71048;SDS011;58704;53.358;-6.238;2023-02-11T08:00:19;2.77;;;1.47;;
71048;SDS011;58704;53.358;-6.238;2023-02-11T08:02:49;6.25;;;1.63;;
71048;SDS011;58704;53.358;-6.238;2023-02-11T08:05:14;6.30;;;2.20;;
71048;SDS011;58704;53.358;-6.238;2023-02-11T08:07:40;5.20;;;1.60;;
71048;SDS011;58704;53.358;-6.238;2023-02-11T08:10:05;8.95;;;2.28;;
71048;SDS011;58704;53.358;-6.238;2023-02-11T08:12:31;5.57;;;1.73;;
71048;SDS011;58704;53.358;-6.238;2023-02-11T08:14:56;5.87;;;2.10;;
71048;SDS011;58704;53.358;-6.238;2023-02-11T08:17:22;8.30;;;1.80;;
71048;SDS011;58704;53.358;-6.238;2023-02-11T08:19:47;4.63;;;1.88;;
71048;SDS011;58704;53.358;-6.238;2023-02-11T08:22:12;6.60;;;1.50;;
71048;SDS011;58704;53.358;-6.238;2023-02-11T08:24:38;3.90;;;1.43;;
71048;SDS011;58704;53.358;-6.238;2023-02-11T08:27:03;5.90;;;1.47;;
71048;SDS011;58704;53.358;-6.238;2023-02-11T08:29:28;6.70;;;1.40;;
71048;SDS011;58704;53.358;-6.238;2023-02-11T08:31:54;6.00;;;1.40;;
71048;SDS011;58704;53.358;-6.238;2023-02-11T08:34:20;4.30;;;1.37;;
71048;SDS011;58704;53.358;-6.238;2023-02-11T08:36:46;3.20;;;1.20;;
71048;SDS011;58704;53.358;-6.238;2023-02-11T08:39:16;12.25;;;4.00;;
71048;SDS011;58704;53.358;-6.238;2023-02-11T08:41:44;9.30;;;2.75;;
71048;SDS011;58704;53.358;-6.238;2023-02-11T08:44:12;3.40;;;1.70;;
71048;SDS011;58704;53.358;-6.238;2023-02-11T08:46:38;8.77;;;2.30;;
71048;SDS011;58704;53.358;-6.238;2023-02-11T08:49:04;11.13;;;1.80;;
71048;SDS011;58704;53.358;-6.238;2023-02-11T08:51:29;4.73;;;2.47;;
71048;SDS011;58704;53.358;-6.238;2023-02-11T08:53:56;6.07;;;1.93;;
71048;SDS011;58704;53.358;-6.238;2023-02-11T08:56:22;5.95;;;1.60;;
71048;SDS011;58704;53.358;-6.238;2023-02-11T09:14:21;5.85;;;1.33;;
71048;SDS011;58704;53.358;-6.238;2023-02-11T09:16:47;5.70;;;1.58;;
71048;SDS011;58704;53.358;-6.238;2023-02-11T09:19:13;6.35;;;1.45;;
71048;SDS011;58704;53.358;-6.238;2023-02-11T09:21:38;8.27;;;1.57;;
71048;SDS011;58704;53.358;-6.238;2023-02-11T09:24:04;4.77;;;1.53;;
71048;SDS011;58704;53.358;-6.238;2023-02-11T09:26:31;9.88;;;1.70;;
71048;SDS011;58704;53.358;-6.238;2023-02-11T09:28:58;5.57;;;1.27;;
71048;SDS011;58704;53.358;-6.238;2023-02-11T09:31:25;5.68;;;1.90;;
71048;SDS011;58704;53.358;-6.238;2023-02-11T09:33:53;6.13;;;1.40;;
71048;SDS011;58704;53.358;-6.238;2023-02-11T09:36:21;8.13;;;1.75;;
71048;SDS011;58704;53.358;-6.238;2023-02-11T09:38:51;5.35;;;2.03;;
71048;SDS011;58704;53.358;-6.238;2023-02-11T09:41:32;5.88;;;1.77;;
71048;SDS011;58704;53.358;-6.238;2023-02-11T09:44:02;8.07;;;2.28;;
71048;SDS011;58704;53.358;-6.238;2023-02-11T09:46:35;6.27;;;2.10;;
71048;SDS011;58704;53.358;-6.238;2023-02-11T09:49:04;6.07;;;1.90;;
71048;SDS011;58704;53.358;-6.238;2023-02-11T09:51:41;6.97;;;1.88;;
71048;SDS011;58704;53.358;-6.238;2023-02-11T09:54:19;4.35;;;1.20;;
71048;SDS011;58704;53.358;-6.238;2023-02-11T09:56:47;7.45;;;1.70;;
71048;SDS011;58704;53.358;-6.238;2023-02-11T09:59:13;8.20;;;1.30;;
71048;SDS011;58704;53.358;-6.238;2023-02-11T10:01:47;5.22;;;1.40;;
71048;SDS011;58704;53.358;-6.238;2023-02-11T10:04:22;6.57;;;1.60;;
71048;SDS011;58704;53.358;-6.238;2023-02-11T10:07:16;5.13;;;1.25;;
71048;SDS011;58704;53.358;-6.238;2023-02-11T10:17:44;5.13;;;1.40;;
71048;SDS011;58704;53.358;-6.238;2023-02-11T10:23:07;4.63;;;1.80;;
71048;SDS011;58704;53.358;-6.238;2023-02-11T10:25:41;6.68;;;1.83;;
71048;SDS011;58704;53.358;-6.238;2023-02-11T10:28:10;7.38;;;2.03;;
71048;SDS011;58704;53.358;-6.238;2023-02-11T10:30:43;7.13;;;1.90;;
71048;SDS011;58704;53.358;-6.238;2023-02-11T10:35:54;5.75;;;1.92;;
71048;SDS011;58704;53.358;-6.238;2023-02-11T10:38:19;5.53;;;2.50;;
71048;SDS011;58704;53.358;-6.238;2023-02-11T10:40:45;4.00;;;1.67;;
71048;SDS011;58704;53.358;-6.238;2023-02-11T10:43:12;6.57;;;1.60;;
71048;SDS011;58704;53.358;-6.238;2023-02-11T10:45:51;5.90;;;1.52;;
71048;SDS011;58704;53.358;-6.238;2023-02-11T10:53:34;10.32;;;2.38;;
71048;SDS011;58704;53.358;-6.238;2023-02-11T10:56:01;7.30;;;1.67;;
71048;SDS011;58704;53.358;-6.238;2023-02-11T10:58:35;5.25;;;1.75;;
71048;SDS011;58704;53.358;-6.238;2023-02-11T11:01:10;3.50;;;1.58;;
71048;SDS011;58704;53.358;-6.238;2023-02-11T11:03:44;9.38;;;1.73;;
71048;SDS011;58704;53.358;-6.238;2023-02-11T11:06:27;6.20;;;1.70;;
71048;SDS011;58704;53.358;-6.238;2023-02-11T11:08:54;5.40;;;1.55;;
71048;SDS011;58704;53.358;-6.238;2023-02-11T11:11:21;8.05;;;2.10;;
71048;SDS011;58704;53.358;-6.238;2023-02-11T11:16:27;10.47;;;1.67;;
71048;SDS011;58704;53.358;-6.238;2023-02-11T11:25:18;10.63;;;1.50;;
71048;SDS011;58704;53.358;-6.238;2023-02-11T11:36:30;6.80;;;2.13;;
71048;SDS011;58704;53.358;-6.238;2023-02-11T11:39:01;9.63;;;1.75;;
71048;SDS011;58704;53.358;-6.238;2023-02-11T11:41:32;9.63;;;2.03;;
71048;SDS011;58704;53.358;-6.238;2023-02-11T11:46:52;9.15;;;1.70;;
71048;SDS011;58704;53.358;-6.238;2023-02-11T11:49:31;9.47;;;1.60;;
71048;SDS011;58704;53.358;-6.238;2023-02-11T11:54:52;8.27;;;1.73;;
71048;SDS011;58704;53.358;-6.238;2023-02-11T11:57:32;10.10;;;1.80;;
71048;SDS011;58704;53.358;-6.238;2023-02-11T12:00:02;8.93;;;2.05;;
71048;SDS011;58704;53.358;-6.238;2023-02-11T12:02:40;13.43;;;2.50;;
71048;SDS011;58704;53.358;-6.238;2023-02-11T12:05:18;6.18;;;1.63;;
71048;SDS011;58704;53.358;-6.238;2023-02-11T12:10:28;5.43;;;1.80;;
71048;SDS011;58704;53.358;-6.238;2023-02-11T12:18:14;9.57;;;1.65;;
71048;SDS011;58704;53.358;-6.238;2023-02-11T12:33:58;7.33;;;1.83;;
71048;SDS011;58704;53.358;-6.238;2023-02-11T12:39:40;9.05;;;1.88;;
71048;SDS011;58704;53.358;-6.238;2023-02-11T12:57:05;14.55;;;1.85;;
71048;SDS011;58704;53.358;-6.238;2023-02-11T12:59:32;8.70;;;2.03;;
71048;SDS011;58704;53.358;-6.238;2023-02-11T13:01:59;9.97;;;1.97;;
71048;SDS011;58704;53.358;-6.238;2023-02-11T13:07:12;6.60;;;1.80;;
71048;SDS011;58704;53.358;-6.238;2023-02-11T13:09:44;8.20;;;1.65;;
71048;SDS011;58704;53.358;-6.238;2023-02-11T13:12:15;7.25;;;1.80;;
71048;SDS011;58704;53.358;-6.238;2023-02-11T13:15:06;4.50;;;1.40;;
71048;SDS011;58704;53.358;-6.238;2023-02-11T13:17:39;3.67;;;1.63;;
71048;SDS011;58704;53.358;-6.238;2023-02-11T13:20:57;10.70;;;2.33;;
71048;SDS011;58704;53.358;-6.238;2023-02-11T13:23:02;8.70;;;2.72;;
71048;SDS011;58704;53.358;-6.238;2023-02-11T13:30:32;5.07;;;2.20;;
71048;SDS011;58704;53.358;-6.238;2023-02-11T13:38:00;2.50;;;1.42;;
71048;SDS011;58704;53.358;-6.238;2023-02-11T13:43:00;5.90;;;1.88;;
71048;SDS011;58704;53.358;-6.238;2023-02-11T13:48:00;4.20;;;1.48;;
71048;SDS011;58704;53.358;-6.238;2023-02-11T13:50:28;4.72;;;1.77;;
71048;SDS011;58704;53.358;-6.238;2023-02-11T13:53:00;8.27;;;1.30;;
71048;SDS011;58704;53.358;-6.238;2023-02-11T13:55:27;7.20;;;1.85;;
71048;SDS011;58704;53.358;-6.238;2023-02-11T14:09:38;7.15;;;1.80;;
71048;SDS011;58704;53.358;-6.238;2023-02-11T14:14:17;5.65;;;1.50;;
71048;SDS011;58704;53.358;-6.238;2023-02-11T14:19:31;3.63;;;1.20;;
71048;SDS011;58704;53.358;-6.238;2023-02-11T14:22:02;9.50;;;1.70;;
71048;SDS011;58704;53.358;-6.238;2023-02-11T14:35:24;6.30;;;2.08;;
71048;SDS011;58704;53.358;-6.238;2023-02-11T14:38:12;10.18;;;1.95;;
71048;SDS011;58704;53.358;-6.238;2023-02-11T14:43:46;9.53;;;2.20;;
71048;SDS011;58704;53.358;-6.238;2023-02-11T14:46:16;3.08;;;1.60;;
71048;SDS011;58704;53.358;-6.238;2023-02-11T14:48:44;6.97;;;2.00;;
71048;SDS011;58704;53.358;-6.238;2023-02-11T14:51:15;6.65;;;2.50;;
71048;SDS011;58704;53.358;-6.238;2023-02-11T14:53:56;9.40;;;3.05;;
71048;SDS011;58704;53.358;-6.238;2023-02-11T14:56:25;4.23;;;1.50;;
71048;SDS011;58704;53.358;-6.238;2023-02-11T14:58:55;5.13;;;1.98;;
71048;SDS011;58704;53.358;-6.238;2023-02-11T15:01:26;3.92;;;1.85;;
71048;SDS011;58704;53.358;-6.238;2023-02-11T15:03:58;5.15;;;2.38;;
71048;SDS011;58704;53.358;-6.238;2023-02-11T15:08:51;3.90;;;1.67;;
71048;SDS011;58704;53.358;-6.238;2023-02-11T15:11:30;3.28;;;1.50;;
71048;SDS011;58704;53.358;-6.238;2023-02-11T15:14:04;4.93;;;1.77;;
71048;SDS011;58704;53.358;-6.238;2023-02-11T15:16:32;10.05;;;3.53;;
71048;SDS011;58704;53.358;-6.238;2023-02-11T15:19:02;6.43;;;2.42;;
71048;SDS011;58704;53.358;-6.238;2023-02-11T15:21:29;5.93;;;2.00;;
71048;SDS011;58704;53.358;-6.238;2023-02-11T15:24:19;6.85;;;2.17;;
71048;SDS011;58704;53.358;-6.238;2023-02-11T15:27:01;3.72;;;1.90;;
71048;SDS011;58704;53.358;-6.238;2023-02-11T15:29:36;13.02;;;4.60;;
71048;SDS011;58704;53.358;-6.238;2023-02-11T15:34:34;8.40;;;4.07;;
71048;SDS011;58704;53.358;-6.238;2023-02-11T15:37:01;9.00;;;3.10;;
71048;SDS011;58704;53.358;-6.238;2023-02-11T15:39:29;7.82;;;3.40;;
71048;SDS011;58704;53.358;-6.238;2023-02-11T15:44:45;8.02;;;2.58;;
71048;SDS011;58704;53.358;-6.238;2023-02-11T15:47:11;3.90;;;1.80;;
71048;SDS011;58704;53.358;-6.238;2023-02-11T15:49:42;5.47;;;2.55;;
71048;SDS011;58704;53.358;-6.238;2023-02-11T15:52:08;7.10;;;2.35;;
71048;SDS011;58704;53.358;-6.238;2023-02-11T15:54:34;10.43;;;2.67;;
71048;SDS011;58704;53.358;-6.238;2023-02-11T15:57:03;6.78;;;2.38;;
71048;SDS011;58704;53.358;-6.238;2023-02-11T15:59:32;6.40;;;2.40;;
71048;SDS011;58704;53.358;-6.238;2023-02-11T16:02:07;5.63;;;2.40;;
71048;SDS011;58704;53.358;-6.238;2023-02-11T16:04:37;9.00;;;2.70;;
71048;SDS011;58704;53.358;-6.238;2023-02-11T16:07:02;6.50;;;2.03;;
71048;SDS011;58704;53.358;-6.238;2023-02-11T16:09:30;5.82;;;2.30;;
71048;SDS011;58704;53.358;-6.238;2023-02-11T16:11:57;6.75;;;3.38;;
71048;SDS011;58704;53.358;-6.238;2023-02-11T16:19:28;8.13;;;3.37;;
71048;SDS011;58704;53.358;-6.238;2023-02-11T16:21:55;6.43;;;2.80;;
71048;SDS011;58704;53.358;-6.238;2023-02-11T16:24:23;8.80;;;2.70;;
71048;SDS011;58704;53.358;-6.238;2023-02-11T16:26:50;7.70;;;2.40;;
71048;SDS011;58704;53.358;-6.238;2023-02-11T16:29:18;9.38;;;2.80;;
71048;SDS011;58704;53.358;-6.238;2023-02-11T16:31:51;12.35;;;3.38;;
71048;SDS011;58704;53.358;-6.238;2023-02-11T16:34:22;8.98;;;3.75;;
71048;SDS011;58704;53.358;-6.238;2023-02-11T16:36:49;14.40;;;3.97;;
71048;SDS011;58704;53.358;-6.238;2023-02-11T16:39:16;11.82;;;3.53;;
71048;SDS011;58704;53.358;-6.238;2023-02-11T16:41:42;6.97;;;2.53;;
71048;SDS011;58704;53.358;-6.238;2023-02-11T16:44:07;6.07;;;2.27;;
71048;SDS011;58704;53.358;-6.238;2023-02-11T16:46:33;5.65;;;2.28;;
71048;SDS011;58704;53.358;-6.238;2023-02-11T16:49:04;7.47;;;2.50;;
71048;SDS011;58704;53.358;-6.238;2023-02-11T16:51:34;5.75;;;3.45;;
71048;SDS011;58704;53.358;-6.238;2023-02-11T16:54:03;8.68;;;2.83;;
71048;SDS011;58704;53.358;-6.238;2023-02-11T16:56:29;6.20;;;3.10;;
71048;SDS011;58704;53.358;-6.238;2023-02-11T16:58:54;9.00;;;2.60;;
71048;SDS011;58704;53.358;-6.238;2023-02-11T17:01:20;7.25;;;3.40;;
71048;SDS011;58704;53.358;-6.238;2023-02-11T17:03:45;11.27;;;6.60;;
71048;SDS011;58704;53.358;-6.238;2023-02-11T17:06:11;12.15;;;6.38;;
71048;SDS011;58704;53.358;-6.238;2023-02-11T17:08:37;8.60;;;2.90;;
71048;SDS011;58704;53.358;-6.238;2023-02-11T17:11:03;6.32;;;3.38;;
71048;SDS011;58704;53.358;-6.238;2023-02-11T17:13:29;7.70;;;2.80;;
71048;SDS011;58704;53.358;-6.238;2023-02-11T17:15:55;6.00;;;2.00;;
71048;SDS011;58704;53.358;-6.238;2023-02-11T17:18:21;5.00;;;2.10;;
71048;SDS011;58704;53.358;-6.238;2023-02-11T17:20:46;5.77;;;2.00;;
71048;SDS011;58704;53.358;-6.238;2023-02-11T17:23:12;9.60;;;3.07;;
71048;SDS011;58704;53.358;-6.238;2023-02-11T17:25:37;7.18;;;2.45;;
71048;SDS011;58704;53.358;-6.238;2023-02-11T17:28:03;6.37;;;2.53;;
71048;SDS011;58704;53.358;-6.238;2023-02-11T17:30:29;4.65;;;2.92;;
71048;SDS011;58704;53.358;-6.238;2023-02-11T17:32:55;7.70;;;3.37;;
71048;SDS011;58704;53.358;-6.238;2023-02-11T17:35:20;12.00;;;2.60;;
71048;SDS011;58704;53.358;-6.238;2023-02-11T17:37:45;6.18;;;2.22;;
71048;SDS011;58704;53.358;-6.238;2023-02-11T17:40:11;6.10;;;2.00;;
71048;SDS011;58704;53.358;-6.238;2023-02-11T17:42:37;5.22;;;2.20;;
71048;SDS011;58704;53.358;-6.238;2023-02-11T17:45:03;5.73;;;2.13;;
71048;SDS011;58704;53.358;-6.238;2023-02-11T17:47:29;4.32;;;2.13;;
71048;SDS011;58704;53.358;-6.238;2023-02-11T17:49:54;4.30;;;2.10;;
71048;SDS011;58704;53.358;-6.238;2023-02-11T17:52:20;11.57;;;3.17;;
71048;SDS011;58704;53.358;-6.238;2023-02-11T17:54:45;6.17;;;2.87;;
71048;SDS011;58704;53.358;-6.238;2023-02-11T17:57:11;6.77;;;2.80;;
71048;SDS011;58704;53.358;-6.238;2023-02-11T17:59:37;4.80;;;2.20;;
71048;SDS011;58704;53.358;-6.238;2023-02-11T18:02:03;6.28;;;2.42;;